Time;durP1;ratioP1;P1;durP2;ratioP2;P2;SDS_P1;SDS_P2;PMS_P1;PMS_P2;Temp;Humidity;BMP_temperature;BMP_pressure;BME280_temperature;BME280_humidity;BME280_pressure;Samples;Min_cycle;Max_cycle;Signal;HPM_P1;HPM_P2
2021/01/31 00:00:24;;;;;;;4.97;3.90;;;3.20;99.90;;;;;;5033167;28;20433;-77
2021/01/31 00:02:50;;;;;;;7.40;5.30;;;3.10;99.90;;;;;;5033083;28;20192;-77
2021/01/31 00:05:16;;;;;;;13.33;8.27;;;3.10;99.90;;;;;;5033476;28;20490;-77
2021/01/31 00:07:42;;;;;;;8.87;6.07;;;3.10;99.90;;;;;;5035048;28;20406;-77
2021/01/31 00:10:11;;;;;;;7.07;4.60;;;3.00;99.90;;;;;;5032801;28;20926;-78
2021/01/31 00:12:36;;;;;;;9.20;6.53;;;3.00;99.90;;;;;;5033073;28;20538;-77
2021/01/31 00:15:05;;;;;;;14.10;9.00;;;3.00;99.90;;;;;;5035121;28;20416;-77
2021/01/31 00:17:31;;;;;;;11.30;5.80;;;2.90;99.90;;;;;;5033371;28;20271;-77
2021/01/31 00:19:57;;;;;;;5.20;4.53;;;3.00;99.90;;;;;;5033679;28;20886;-77
2021/01/31 00:22:22;;;;;;;10.43;6.90;;;3.00;99.90;;;;;;5035409;28;20191;-77
2021/01/31 00:24:53;;;;;;;9.87;6.77;;;3.10;99.90;;;;;;5034139;28;20518;-77
2021/01/31 00:27:23;;;;;;;3.43;3.13;;;3.10;99.90;;;;;;5032746;28;20629;-77
2021/01/31 00:29:49;;;;;;;5.73;4.50;;;3.00;99.90;;;;;;5032497;28;21006;-77
2021/01/31 00:32:21;;;;;;;5.97;5.37;;;3.00;99.90;;;;;;5031593;28;20459;-77
2021/01/31 00:34:47;;;;;;;6.10;4.93;;;3.00;99.90;;;;;;5033927;28;20383;-77
2021/01/31 00:37:14;;;;;;;5.60;3.90;;;2.90;99.90;;;;;;5028625;28;20429;-77
2021/01/31 00:39:40;;;;;;;3.53;2.83;;;2.90;99.90;;;;;;5020627;28;20536;-77
2021/01/31 00:42:06;;;;;;;5.70;4.33;;;2.90;99.90;;;;;;5022619;28;20457;-77
2021/01/31 00:44:31;;;;;;;5.03;3.93;;;2.90;99.90;;;;;;5033694;28;20703;-77
2021/01/31 00:46:57;;;;;;;5.73;3.60;;;2.90;99.90;;;;;;5033849;28;20194;-77
2021/01/31 00:49:22;;;;;;;3.63;2.90;;;3.00;99.90;;;;;;5034218;28;20179;-77
2021/01/31 00:51:48;;;;;;;4.63;3.50;;;3.00;99.90;;;;;;5034057;28;20254;-77
2021/01/31 00:54:13;;;;;;;4.27;3.80;;;3.00;99.90;;;;;;5034620;28;20176;-77
2021/01/31 00:56:39;;;;;;;4.90;3.80;;;3.00;99.90;;;;;;5034816;28;20166;-77
2021/01/31 00:59:05;;;;;;;4.97;3.57;;;3.00;99.90;;;;;;5034480;28;20531;-77
2021/01/31 01:01:30;;;;;;;5.93;4.70;;;3.00;99.90;;;;;;5034301;28;20203;-77
2021/01/31 01:03:56;;;;;;;4.40;3.53;;;3.00;99.90;;;;;;5034536;28;20548;-77
2021/01/31 01:06:21;;;;;;;5.10;4.37;;;3.00;99.90;;;;;;5034061;28;20261;-77
2021/01/31 01:08:47;;;;;;;5.20;4.07;;;3.00;99.90;;;;;;5031645;28;20567;-77
2021/01/31 01:11:12;;;;;;;4.03;3.37;;;3.00;99.90;;;;;;5032533;28;20209;-77
2021/01/31 01:13:38;;;;;;;3.70;3.40;;;3.00;99.90;;;;;;5033158;28;20254;-77
2021/01/31 01:16:04;;;;;;;4.60;4.10;;;2.90;99.90;;;;;;5032286;28;20195;-77
2021/01/31 01:18:29;;;;;;;5.30;3.70;;;2.90;99.90;;;;;;5033984;28;20183;-77
2021/01/31 01:20:55;;;;;;;4.07;3.60;;;2.90;99.90;;;;;;5033597;28;20696;-77
2021/01/31 01:23:21;;;;;;;4.30;3.70;;;2.80;99.90;;;;;;5034759;28;20191;-77
2021/01/31 01:25:46;;;;;;;5.13;4.10;;;2.70;99.90;;;;;;5033675;28;20171;-77
2021/01/31 01:28:13;;;;;;;4.43;4.03;;;2.70;99.90;;;;;;5033196;28;20713;-77
2021/01/31 01:30:39;;;;;;;5.37;4.30;;;2.70;99.90;;;;;;5032196;28;20201;-77
2021/01/31 01:33:05;;;;;;;6.40;3.90;;;2.70;99.90;;;;;;5033483;28;20445;-77
2021/01/31 01:35:30;;;;;;;6.57;4.23;;;2.60;99.90;;;;;;5024237;28;20544;-77
2021/01/31 01:37:56;;;;;;;4.27;3.80;;;2.60;99.90;;;;;;5017427;28;20188;-77
2021/01/31 01:40:35;;;;;;;5.20;3.57;;;2.70;99.90;;;;;;5033347;28;20504;-77
2021/01/31 01:43:02;;;;;;;4.10;3.67;;;2.70;99.90;;;;;;5029243;28;20462;-77
2021/01/31 01:45:28;;;;;;;5.13;4.10;;;2.60;99.90;;;;;;5027766;28;20443;-77
2021/01/31 01:48:16;;;;;;;4.37;3.97;;;2.60;99.90;;;;;;5026525;28;20482;-77
2021/01/31 01:50:53;;;;;;;6.10;3.83;;;2.60;99.90;;;;;;5025361;28;20446;-77
2021/01/31 01:53:21;;;;;;;5.40;4.27;;;2.50;99.90;;;;;;5028613;28;20472;-77
2021/01/31 01:56:11;;;;;;;5.40;4.10;;;2.50;99.90;;;;;;5033563;28;20417;-77
2021/01/31 01:58:37;;;;;;;5.33;4.07;;;2.50;99.90;;;;;;5022887;28;20507;-77
2021/01/31 02:01:03;;;;;;;5.90;4.10;;;2.50;99.90;;;;;;5035912;28;20920;-77
2021/01/31 02:03:33;;;;;;;4.57;4.07;;;2.50;99.90;;;;;;5038053;28;20413;-77
2021/01/31 02:06:12;;;;;;;3.83;3.40;;;2.50;99.90;;;;;;5026951;28;20418;-77
2021/01/31 02:08:40;;;;;;;7.63;4.33;;;2.50;99.90;;;;;;5027034;28;20472;-77
2021/01/31 02:11:06;;;;;;;4.30;3.90;;;2.50;99.90;;;;;;5032866;28;20556;-77
2021/01/31 02:13:32;;;;;;;4.83;4.30;;;2.50;99.90;;;;;;5031075;28;20848;-77
2021/01/31 02:15:59;;;;;;;5.57;4.77;;;2.40;99.90;;;;;;5036226;28;20182;-77
2021/01/31 02:18:59;;;;;;;5.23;3.87;;;2.40;99.90;;;;;;5017758;28;20453;-77
2021/01/31 02:21:46;;;;;;;8.23;3.97;;;2.50;99.90;;;;;;5015139;28;20489;-77
2021/01/31 02:24:30;;;;;;;3.80;3.47;;;2.40;99.90;;;;;;5033790;28;20429;-77
2021/01/31 02:27:23;;;;;;;5.90;3.90;;;2.50;99.90;;;;;;5036400;28;20434;-77
2021/01/31 02:30:06;;;;;;;5.30;4.30;;;2.50;99.90;;;;;;5031829;28;20421;-77
2021/01/31 02:32:52;;;;;;;5.57;3.70;;;2.50;99.90;;;;;;5035254;28;20473;-77
2021/01/31 02:35:22;;;;;;;5.10;4.13;;;2.40;99.90;;;;;;5032933;28;20497;-77
2021/01/31 02:37:57;;;;;;;4.37;3.97;;;2.30;99.90;;;;;;5037070;28;20394;-77
2021/01/31 02:40:23;;;;;;;5.67;5.07;;;2.20;99.90;;;;;;5035621;28;20563;-77
2021/01/31 02:42:57;;;;;;;6.60;5.10;;;2.20;99.90;;;;;;5020336;28;20462;-77
2021/01/31 02:45:33;;;;;;;4.27;3.87;;;2.20;99.90;;;;;;5027628;28;20185;-77
2021/01/31 02:48:10;;;;;;;6.60;4.20;;;2.20;99.90;;;;;;5036913;28;20493;-77
2021/01/31 02:51:03;;;;;;;4.70;4.13;;;2.20;99.90;;;;;;5036390;28;20496;-77
2021/01/31 02:53:38;;;;;;;5.77;4.80;;;2.10;99.90;;;;;;5035103;28;20424;-77
2021/01/31 02:56:06;;;;;;;5.37;4.27;;;2.10;99.90;;;;;;5035873;28;20441;-77
2021/01/31 02:58:47;;;;;;;4.43;4.00;;;2.10;99.90;;;;;;5036538;28;20477;-77
2021/01/31 03:01:39;;;;;;;7.07;4.30;;;2.10;99.90;;;;;;5034640;28;20764;-77
2021/01/31 03:04:22;;;;;;;5.80;4.37;;;2.00;99.90;;;;;;5027006;28;20427;-77
2021/01/31 03:06:55;;;;;;;8.93;6.47;;;2.00;99.90;;;;;;5015474;28;20431;-77
2021/01/31 03:09:38;;;;;;;6.77;4.80;;;1.80;99.90;;;;;;5030156;28;20437;-77
2021/01/31 03:12:16;;;;;;;6.13;5.50;;;1.80;99.90;;;;;;5014620;28;20558;-77
2021/01/31 03:14:47;;;;;;;7.93;6.07;;;1.70;99.90;;;;;;5016562;28;20412;-77
2021/01/31 03:17:24;;;;;;;6.37;5.37;;;1.80;99.90;;;;;;5032904;28;20433;-77
2021/01/31 03:20:17;;;;;;;6.73;5.00;;;1.80;99.90;;;;;;5035344;28;20410;-77
2021/01/31 03:22:53;;;;;;;7.33;5.83;;;1.80;99.90;;;;;;5011109;28;20882;-76
2021/01/31 03:25:25;;;;;;;7.00;5.13;;;1.70;99.90;;;;;;5028085;28;20435;-77
2021/01/31 03:27:51;;;;;;;8.60;5.70;;;1.70;99.90;;;;;;5016186;28;20503;-77
2021/01/31 03:30:17;;;;;;;7.43;5.33;;;1.60;99.90;;;;;;5055673;28;20517;-77
2021/01/31 03:33:01;;;;;;;6.27;4.87;;;1.60;99.90;;;;;;5033732;28;20252;-77
2021/01/31 03:35:36;;;;;;;8.93;6.20;;;1.60;99.90;;;;;;5015582;28;20395;-77
2021/01/31 03:38:29;;;;;;;7.37;5.00;;;1.60;99.90;;;;;;5023532;28;20429;-77
2021/01/31 03:40:59;;;;;;;8.70;5.30;;;1.50;99.90;;;;;;5023610;28;20513;-77
2021/01/31 03:43:24;;;;;;;7.73;6.23;;;1.50;99.90;;;;;;5034184;28;20438;-77
2021/01/31 03:46:09;;;;;;;7.57;6.77;;;1.50;99.90;;;;;;5034810;28;20448;-77
2021/01/31 03:48:49;;;;;;;9.13;6.10;;;1.40;99.90;;;;;;5035262;28;20408;-77
2021/01/31 03:51:16;;;;;;;9.27;6.37;;;1.50;99.90;;;;;;5020274;28;20500;-77
2021/01/31 03:53:42;;;;;;;8.50;7.60;;;1.40;99.90;;;;;;5036144;28;20404;-77
2021/01/31 03:56:11;;;;;;;9.10;6.20;;;1.40;99.90;;;;;;5035684;28;20405;-77
2021/01/31 03:58:39;;;;;;;9.33;6.13;;;1.40;99.90;;;;;;5035509;28;20422;-77
2021/01/31 04:01:05;;;;;;;10.97;7.37;;;1.40;99.90;;;;;;5034182;28;20436;-77
2021/01/31 04:03:34;;;;;;;10.40;5.83;;;1.40;99.90;;;;;;5034256;28;20407;-77
2021/01/31 04:06:11;;;;;;;10.93;6.70;;;1.30;99.90;;;;;;5033555;28;20254;-77
2021/01/31 04:08:40;;;;;;;9.27;6.67;;;1.30;99.90;;;;;;5034539;28;20459;-77
2021/01/31 04:11:06;;;;;;;8.13;6.57;;;1.30;99.90;;;;;;5032169;28;21120;-77
2021/01/31 04:13:34;;;;;;;8.60;6.97;;;1.20;99.90;;;;;;5033586;28;20442;-77
2021/01/31 04:16:03;;;;;;;9.70;6.93;;;1.20;99.90;;;;;;5034131;28;21002;-77
2021/01/31 04:18:29;;;;;;;8.60;6.50;;;1.20;99.90;;;;;;5033718;28;20914;-77
2021/01/31 04:20:54;;;;;;;9.30;7.40;;;1.10;99.90;;;;;;5032697;28;20426;-77
2021/01/31 04:23:21;;;;;;;8.20;6.10;;;1.20;99.90;;;;;;5034069;28;20252;-77
2021/01/31 04:25:47;;;;;;;9.30;6.93;;;1.20;99.90;;;;;;5027385;28;20163;-77
2021/01/31 04:28:19;;;;;;;12.10;7.70;;;1.10;99.90;;;;;;5033632;28;20406;-77
2021/01/31 04:30:46;;;;;;;10.90;7.23;;;1.00;99.90;;;;;;5026396;28;20452;-77
2021/01/31 04:33:14;;;;;;;10.83;7.13;;;1.00;99.90;;;;;;5033075;28;20964;-77
2021/01/31 04:35:40;;;;;;;9.87;6.10;;;1.00;99.90;;;;;;5033685;28;20736;-77
2021/01/31 04:38:08;;;;;;;11.70;7.03;;;1.00;99.90;;;;;;5013246;28;20412;-77
2021/01/31 04:40:34;;;;;;;12.80;8.47;;;1.10;99.90;;;;;;5013100;28;20807;-77
2021/01/31 04:43:01;;;;;;;10.40;7.77;;;1.10;99.90;;;;;;5026683;28;20462;-77
2021/01/31 04:45:27;;;;;;;10.70;6.70;;;1.00;99.90;;;;;;5030410;28;20441;-77
2021/01/31 04:48:11;;;;;;;8.57;6.93;;;1.00;99.90;;;;;;5031553;28;20660;-77
2021/01/31 04:50:56;;;;;;;10.87;7.60;;;1.00;99.90;;;;;;5031601;28;20227;-77
2021/01/31 04:53:35;;;;;;;14.30;8.73;;;1.00;99.90;;;;;;5031908;28;20508;-77
2021/01/31 04:56:12;;;;;;;9.20;7.27;;;1.00;99.90;;;;;;5033148;28;20423;-77
2021/01/31 04:58:48;;;;;;;10.80;7.57;;;1.00;99.90;;;;;;5033233;28;20420;-77
2021/01/31 05:01:31;;;;;;;11.20;7.60;;;1.00;99.90;;;;;;5031473;28;20413;-77
2021/01/31 05:04:11;;;;;;;10.10;7.43;;;1.00;99.90;;;;;;5032661;28;20504;-77
2021/01/31 05:06:47;;;;;;;18.00;9.40;;;1.00;99.90;;;;;;5032616;28;20952;-77
2021/01/31 05:09:20;;;;;;;10.83;7.80;;;1.00;99.90;;;;;;5032546;28;20389;-77
2021/01/31 05:12:00;;;;;;;10.03;7.37;;;1.00;99.90;;;;;;5032159;28;20480;-77
2021/01/31 05:14:41;;;;;;;10.63;7.40;;;0.90;99.90;;;;;;5032355;28;21425;-77
2021/01/31 05:17:07;;;;;;;10.77;7.90;;;0.90;99.90;;;;;;5032441;28;20437;-77
2021/01/31 05:19:34;;;;;;;9.70;7.30;;;0.90;99.90;;;;;;5032246;28;20512;-77
2021/01/31 05:22:00;;;;;;;11.00;8.60;;;0.90;99.90;;;;;;5031831;28;20473;-77
2021/01/31 05:24:26;;;;;;;13.97;8.20;;;0.90;99.90;;;;;;5025571;28;20426;-77
2021/01/31 05:26:55;;;;;;;15.57;9.20;;;0.90;99.90;;;;;;5027184;28;20432;-77
2021/01/31 05:29:25;;;;;;;10.50;7.87;;;0.90;99.90;;;;;;5025030;28;20431;-77
2021/01/31 05:32:11;;;;;;;13.33;8.50;;;0.80;99.90;;;;;;5025725;28;20481;-77
2021/01/31 05:34:48;;;;;;;10.87;7.30;;;0.70;99.90;;;;;;5024827;28;20524;-77
2021/01/31 05:37:20;;;;;;;10.70;8.20;;;0.80;99.90;;;;;;5011142;28;20514;-77
2021/01/31 05:39:47;;;;;;;12.60;8.70;;;0.80;99.90;;;;;;5026258;28;20429;-77
2021/01/31 05:42:19;;;;;;;11.43;8.00;;;0.80;99.90;;;;;;5028939;28;20870;-77
2021/01/31 05:45:14;;;;;;;12.60;8.20;;;0.70;99.90;;;;;;5011367;28;20423;-77
2021/01/31 05:47:43;;;;;;;12.53;8.30;;;0.70;99.90;;;;;;5012507;28;20475;-77
2021/01/31 05:50:35;;;;;;;15.60;9.30;;;0.70;99.90;;;;;;5013067;28;20408;-77
2021/01/31 05:53:30;;;;;;;12.43;8.80;;;0.70;99.90;;;;;;5025866;28;20452;-77
2021/01/31 05:56:24;;;;;;;13.13;8.63;;;0.80;99.90;;;;;;5024830;28;20434;-77
2021/01/31 05:58:52;;;;;;;12.77;8.57;;;0.80;99.90;;;;;;5017842;28;20420;-77
2021/01/31 06:01:17;;;;;;;13.73;8.50;;;0.70;99.90;;;;;;5031850;28;20545;-77
2021/01/31 06:03:43;;;;;;;12.17;8.40;;;0.70;99.90;;;;;;5031664;28;20509;-77
2021/01/31 06:06:21;;;;;;;14.30;10.00;;;0.70;99.90;;;;;;5032034;28;20581;-77
2021/01/31 06:08:49;;;;;;;12.23;7.70;;;0.70;99.90;;;;;;5031939;28;20228;-77
2021/01/31 06:11:28;;;;;;;11.43;8.77;;;0.70;99.90;;;;;;5063826;28;20446;-77
2021/01/31 06:14:09;;;;;;;15.13;9.37;;;0.60;99.90;;;;;;5031615;28;20492;-77
2021/01/31 06:16:36;;;;;;;13.80;8.70;;;0.60;99.90;;;;;;5031932;28;20402;-77
2021/01/31 06:19:41;;;;;;;12.57;8.37;;;0.60;99.90;;;;;;5032140;28;20399;-77
2021/01/31 06:22:07;;;;;;;11.63;7.60;;;0.60;99.90;;;;;;5028474;28;20426;-78
2021/01/31 06:24:43;;;;;;;15.70;9.03;;;0.60;99.90;;;;;;5031837;28;20413;-77
2021/01/31 06:27:14;;;;;;;15.47;8.50;;;0.60;99.90;;;;;;5032523;28;20418;-78
2021/01/31 06:30:10;;;;;;;12.70;8.70;;;0.60;99.90;;;;;;5029983;28;20434;-77
2021/01/31 06:32:36;;;;;;;14.70;10.47;;;0.60;99.90;;;;;;5023366;28;20813;-78
2021/01/31 06:35:10;;;;;;;18.77;9.03;;;0.60;99.90;;;;;;5033377;28;20433;-78
2021/01/31 06:37:57;;;;;;;12.23;9.17;;;0.40;99.90;;;;;;5035412;28;20406;-78
2021/01/31 06:40:47;;;;;;;14.67;9.70;;;0.50;99.90;;;;;;5033571;28;20775;-78
2021/01/31 06:43:34;;;;;;;15.87;10.20;;;0.40;99.90;;;;;;5036270;28;20476;-78
2021/01/31 06:46:33;;;;;;;14.50;9.20;;;0.40;99.90;;;;;;5037992;28;20473;-78
2021/01/31 06:49:23;;;;;;;13.50;9.57;;;0.40;99.90;;;;;;5023866;28;20428;-78
2021/01/31 06:51:58;;;;;;;17.83;10.83;;;0.30;99.90;;;;;;5030370;28;20532;-78
2021/01/31 06:54:26;;;;;;;15.23;8.53;;;0.30;99.90;;;;;;5026685;28;20849;-78
2021/01/31 06:57:04;;;;;;;18.70;10.00;;;0.40;99.90;;;;;;5033332;28;21044;-78
2021/01/31 06:59:58;;;;;;;16.30;8.30;;;0.30;99.90;;;;;;5034722;28;20456;-78
2021/01/31 07:02:42;;;;;;;12.00;8.47;;;0.30;99.90;;;;;;5032334;28;20820;-78
2021/01/31 07:05:10;;;;;;;12.87;8.30;;;0.30;99.90;;;;;;5035045;28;20417;-77
2021/01/31 07:08:11;;;;;;;18.30;9.77;;;0.30;99.90;;;;;;5038386;28;20409;-78
2021/01/31 07:11:05;;;;;;;16.70;10.00;;;0.20;99.90;;;;;;5032222;28;20462;-78
2021/01/31 07:13:54;;;;;;;13.73;9.63;;;0.20;99.90;;;;;;5032342;28;20426;-79
2021/01/31 07:16:20;;;;;;;13.93;9.83;;;0.20;99.90;;;;;;5027503;28;20827;-78
2021/01/31 07:19:00;;;;;;;12.60;9.90;;;0.10;99.90;;;;;;5035824;28;20424;-77
2021/01/31 07:21:35;;;;;;;14.37;9.37;;;0.00;99.90;;;;;;5015554;28;20223;-77
2021/01/31 07:24:06;;;;;;;13.57;9.17;;;0.10;99.90;;;;;;5026473;28;20995;-77
2021/01/31 07:26:35;;;;;;;18.73;10.93;;;0.00;99.90;;;;;;5023303;28;20426;-77
2021/01/31 07:29:07;;;;;;;14.70;8.47;;;0.00;99.90;;;;;;5034359;28;20429;-79
2021/01/31 07:31:43;;;;;;;16.27;9.50;;;0.10;99.90;;;;;;5036460;28;20466;-78
2021/01/31 07:34:25;;;;;;;14.23;10.20;;;0.10;99.90;;;;;;5018226;28;20926;-78
2021/01/31 07:37:09;;;;;;;22.33;11.37;;;0.10;99.90;;;;;;5020284;28;20441;-77
2021/01/31 07:40:10;;;;;;;16.63;11.30;;;0.00;99.90;;;;;;5027093;28;20507;-78
2021/01/31 07:42:41;;;;;;;19.23;11.57;;;0.10;99.90;;;;;;5021764;28;20449;-78
2021/01/31 07:45:14;;;;;;;19.10;11.57;;;0.10;99.90;;;;;;5017434;28;20514;-78
2021/01/31 07:47:40;;;;;;;17.20;10.20;;;0.10;99.90;;;;;;5036014;28;21159;-78
2021/01/31 07:50:06;;;;;;;16.87;10.43;;;0.20;99.90;;;;;;5034894;28;20438;-79
2021/01/31 07:52:55;;;;;;;15.43;10.50;;;0.30;99.90;;;;;;5033526;28;20471;-77
2021/01/31 07:55:31;;;;;;;15.17;9.30;;;0.40;99.90;;;;;;5032088;28;20194;-77
2021/01/31 07:58:08;;;;;;;18.87;11.23;;;0.50;99.90;;;;;;5026227;28;20457;-77
2021/01/31 08:00:44;;;;;;;15.17;10.17;;;0.50;99.90;;;;;;5028803;28;20448;-78
2021/01/31 08:03:35;;;;;;;14.63;10.37;;;0.60;99.90;;;;;;5033473;28;20794;-78
2021/01/31 08:06:12;;;;;;;16.53;10.20;;;0.50;99.90;;;;;;5026600;28;20428;-78
2021/01/31 08:08:52;;;;;;;16.90;10.70;;;0.60;99.90;;;;;;5024759;28;20423;-78
2021/01/31 08:11:18;;;;;;;19.70;10.50;;;0.60;99.90;;;;;;5046150;28;20460;-79
2021/01/31 08:13:49;;;;;;;16.17;11.07;;;0.50;99.90;;;;;;5031776;28;21172;-78
2021/01/31 08:16:47;;;;;;;13.50;9.30;;;0.60;99.90;;;;;;5028902;28;20180;-79
2021/01/31 08:19:18;;;;;;;13.33;8.40;;;1.50;99.90;;;;;;5031904;28;20449;-79
2021/01/31 08:22:12;;;;;;;13.70;9.20;;;3.00;99.90;;;;;;5031286;28;20453;-78
2021/01/31 08:25:05;;;;;;;9.03;7.60;;;4.30;99.90;;;;;;5031433;28;20457;-78
2021/01/31 08:27:42;;;;;;;9.37;8.00;;;5.40;99.90;;;;;;5031214;28;20781;-78
2021/01/31 08:30:23;;;;;;;8.93;7.47;;;6.60;99.90;;;;;;5032168;28;20434;-78
2021/01/31 08:33:15;;;;;;;10.13;7.73;;;7.50;99.90;;;;;;5032199;28;20453;-78
2021/01/31 08:35:43;;;;;;;9.30;7.37;;;8.50;99.90;;;;;;5030376;28;20426;-78
2021/01/31 08:38:37;;;;;;;9.67;7.60;;;8.20;99.90;;;;;;5035249;28;20483;-77
2021/01/31 08:41:03;;;;;;;14.70;9.13;;;8.60;99.90;;;;;;5034169;28;20810;-78
2021/01/31 08:43:36;;;;;;;9.07;7.67;;;8.40;99.90;;;;;;5020758;28;20525;-78
2021/01/31 08:46:13;;;;;;;8.37;7.23;;;8.40;99.90;;;;;;5032374;28;20434;-78
2021/01/31 08:48:38;;;;;;;11.20;8.30;;;8.70;99.90;;;;;;5029738;28;20437;-78
2021/01/31 08:51:29;;;;;;;10.40;7.60;;;9.30;99.90;;;;;;5034048;28;20453;-78
2021/01/31 08:54:11;;;;;;;8.33;7.27;;;8.80;99.90;;;;;;5021732;28;20683;-78
2021/01/31 08:56:54;;;;;;;10.90;8.23;;;9.60;99.90;;;;;;5034995;28;20437;-79
2021/01/31 08:59:44;;;;;;;8.80;7.80;;;9.70;98.10;;;;;;5032806;28;20918;-77
2021/01/31 09:02:16;;;;;;;9.57;8.20;;;9.00;96.30;;;;;;5034272;28;20449;-78
2021/01/31 09:04:54;;;;;;;9.73;7.97;;;8.80;98.80;;;;;;5035456;28;20933;-78
2021/01/31 09:07:47;;;;;;;7.90;6.33;;;8.90;96.70;;;;;;5021323;28;20418;-78
2021/01/31 09:10:17;;;;;;;8.03;6.93;;;8.70;97.00;;;;;;5032878;28;20442;-77
2021/01/31 09:12:43;;;;;;;8.70;7.10;;;8.40;97.90;;;;;;5033629;28;20842;-77
2021/01/31 09:15:12;;;;;;;8.60;7.27;;;8.20;98.70;;;;;;5031622;28;20475;-78
2021/01/31 09:17:38;;;;;;;8.07;6.53;;;8.40;98.80;;;;;;5031457;28;20180;-78
2021/01/31 09:20:26;;;;;;;9.50;7.60;;;8.50;98.90;;;;;;5020764;28;20471;-78
2021/01/31 09:23:05;;;;;;;9.27;7.50;;;9.00;99.10;;;;;;5026558;28;20457;-78
2021/01/31 09:25:34;;;;;;;10.83;8.47;;;8.10;97.20;;;;;;5033015;28;20445;-77
2021/01/31 09:28:08;;;;;;;8.93;7.10;;;7.30;99.60;;;;;;5032433;28;20802;-78
2021/01/31 09:30:35;;;;;;;9.53;6.83;;;7.20;99.90;;;;;;5034134;28;20919;-77
2021/01/31 09:33:06;;;;;;;9.00;7.00;;;7.40;99.90;;;;;;5025828;28;20457;-78
2021/01/31 09:35:35;;;;;;;7.60;6.37;;;7.70;99.90;;;;;;5031434;28;20579;-78
2021/01/31 09:38:17;;;;;;;8.50;7.20;;;8.00;99.90;;;;;;5032968;28;20425;-78
2021/01/31 09:40:44;;;;;;;9.47;7.20;;;7.90;99.90;;;;;;5031955;28;20515;-77
2021/01/31 09:43:32;;;;;;;10.03;7.27;;;7.30;99.90;;;;;;5032722;28;20581;-78
2021/01/31 09:46:00;;;;;;;6.90;5.33;;;7.30;99.90;;;;;;5032968;28;20445;-78
2021/01/31 09:48:28;;;;;;;9.17;6.60;;;7.50;99.90;;;;;;5031596;28;20776;-77
2021/01/31 09:51:06;;;;;;;9.27;6.37;;;8.30;99.90;;;;;;5019281;28;20494;-78
2021/01/31 09:53:33;;;;;;;8.60;6.80;;;8.80;99.90;;;;;;5033301;28;20441;-78
2021/01/31 09:56:00;;;;;;;7.90;6.90;;;8.80;99.90;;;;;;5022862;28;20738;-78
2021/01/31 09:58:42;;;;;;;7.40;6.70;;;8.80;99.90;;;;;;5023805;28;20954;-78
2021/01/31 10:01:23;;;;;;;7.23;6.50;;;9.20;98.90;;;;;;5024569;28;20411;-78
2021/01/31 10:04:02;;;;;;;7.80;6.33;;;9.20;99.60;;;;;;5034066;28;20937;-77
2021/01/31 10:06:40;;;;;;;7.13;5.93;;;8.00;99.80;;;;;;5032553;28;20406;-78
2021/01/31 10:09:05;;;;;;;8.70;7.57;;;7.10;99.90;;;;;;5034267;28;20433;-78
2021/01/31 10:11:38;;;;;;;7.30;6.10;;;6.70;99.90;;;;;;5031663;28;20996;-78
2021/01/31 10:14:05;;;;;;;9.23;7.20;;;7.00;99.90;;;;;;5032464;28;20198;-78
2021/01/31 10:16:34;;;;;;;7.33;6.60;;;7.00;99.90;;;;;;5031628;28;21108;-78
2021/01/31 10:19:15;;;;;;;8.37;6.70;;;6.50;99.90;;;;;;5029384;28;20443;-78
2021/01/31 10:21:52;;;;;;;7.47;6.70;;;6.90;99.90;;;;;;5036440;28;20430;-78
2021/01/31 10:24:25;;;;;;;9.50;6.87;;;6.80;99.90;;;;;;5037772;28;20412;-77
2021/01/31 10:27:09;;;;;;;10.37;7.10;;;6.50;99.90;;;;;;5031397;28;20838;-77
2021/01/31 10:29:35;;;;;;;10.90;6.93;;;6.70;99.90;;;;;;5016295;28;20467;-78
2021/01/31 10:32:19;;;;;;;8.00;6.27;;;7.20;99.90;;;;;;5024794;28;20493;-78
2021/01/31 10:34:44;;;;;;;10.03;7.80;;;7.20;99.90;;;;;;5036790;28;20199;-78
2021/01/31 10:37:18;;;;;;;7.97;6.20;;;6.20;99.90;;;;;;5035126;28;20473;-78
2021/01/31 10:39:46;;;;;;;8.07;6.47;;;6.30;99.90;;;;;;5037561;28;20159;-77
2021/01/31 10:42:12;;;;;;;7.33;4.93;;;5.90;99.90;;;;;;5033811;28;20446;-77
2021/01/31 10:44:37;;;;;;;8.37;6.40;;;5.70;99.90;;;;;;5033765;28;20492;-77
2021/01/31 10:47:03;;;;;;;8.57;6.40;;;5.90;99.90;;;;;;5037798;28;20223;-78
2021/01/31 10:49:29;;;;;;;8.47;6.50;;;5.70;99.90;;;;;;5037011;28;20184;-78
2021/01/31 10:51:55;;;;;;;7.97;6.30;;;5.40;99.90;;;;;;5034672;28;20195;-78
2021/01/31 10:54:22;;;;;;;8.40;5.70;;;4.60;99.90;;;;;;5036463;28;20310;-78
2021/01/31 10:56:48;;;;;;;6.57;5.70;;;4.20;99.90;;;;;;5036690;28;20410;-78
2021/01/31 10:59:14;;;;;;;8.30;6.53;;;3.90;99.90;;;;;;5035140;28;20437;-78
2021/01/31 11:01:44;;;;;;;7.03;5.97;;;3.70;99.90;;;;;;5037775;28;20213;-78
2021/01/31 11:04:10;;;;;;;6.63;5.30;;;3.70;99.90;;;;;;5032951;28;20425;-78
2021/01/31 11:06:36;;;;;;;7.00;5.67;;;3.60;99.90;;;;;;5034203;28;20448;-77
2021/01/31 11:09:02;;;;;;;7.27;5.60;;;3.60;99.90;;;;;;5037108;28;20241;-77
2021/01/31 11:11:28;;;;;;;7.73;6.00;;;3.40;99.90;;;;;;5033589;28;20217;-78
2021/01/31 11:13:53;;;;;;;7.23;6.43;;;3.60;99.90;;;;;;5034214;28;20430;-78
2021/01/31 11:16:19;;;;;;;7.57;5.30;;;3.50;99.90;;;;;;5035432;28;20175;-77
2021/01/31 11:18:46;;;;;;;8.10;5.73;;;3.40;99.90;;;;;;5035383;28;20286;-78
2021/01/31 11:21:18;;;;;;;7.80;5.20;;;3.30;99.90;;;;;;5034964;28;20214;-78
2021/01/31 11:23:44;;;;;;;7.03;4.97;;;3.20;99.90;;;;;;5036853;28;20751;-78
2021/01/31 11:26:09;;;;;;;6.80;4.20;;;3.20;99.90;;;;;;5034053;28;20447;-77
2021/01/31 11:28:35;;;;;;;5.60;4.77;;;3.20;99.90;;;;;;5026558;28;20199;-78
2021/01/31 11:31:00;;;;;;;7.70;5.20;;;3.10;99.90;;;;;;5032153;28;20218;-77
2021/01/31 11:33:26;;;;;;;8.80;5.30;;;3.10;99.90;;;;;;5035101;28;20211;-77
2021/01/31 11:35:51;;;;;;;6.40;4.60;;;3.30;99.90;;;;;;5035772;28;20180;-77
2021/01/31 11:38:17;;;;;;;7.40;4.40;;;3.30;99.90;;;;;;5034612;28;20578;-78
2021/01/31 11:40:43;;;;;;;8.90;5.30;;;3.30;99.90;;;;;;5029156;28;20270;-77
2021/01/31 11:43:08;;;;;;;7.73;4.53;;;3.30;99.90;;;;;;5023488;28;20223;-77
2021/01/31 11:45:34;;;;;;;6.23;4.23;;;3.10;99.90;;;;;;5035635;28;20219;-78
2021/01/31 11:47:59;;;;;;;5.43;4.60;;;3.20;99.90;;;;;;5036843;28;20664;-77
2021/01/31 11:50:25;;;;;;;5.60;4.57;;;3.10;99.90;;;;;;5034729;28;20270;-77
2021/01/31 11:52:51;;;;;;;5.90;5.00;;;3.10;99.90;;;;;;5033476;28;20222;-77
2021/01/31 11:55:17;;;;;;;5.83;4.27;;;3.20;99.90;;;;;;5036589;28;20288;-77
2021/01/31 11:57:42;;;;;;;6.47;4.43;;;3.00;99.90;;;;;;5036112;28;20175;-77
2021/01/31 12:00:14;;;;;;;4.80;3.77;;;3.00;99.90;;;;;;5032701;28;20179;-77
2021/01/31 12:02:39;;;;;;;6.47;4.70;;;3.10;99.90;;;;;;5026617;28;20223;-77
2021/01/31 12:05:09;;;;;;;5.63;4.23;;;3.00;99.90;;;;;;5035548;28;20413;-77
2021/01/31 12:07:34;;;;;;;4.10;3.70;;;3.00;99.90;;;;;;5036654;28;20652;-77
2021/01/31 12:10:00;;;;;;;5.50;4.40;;;3.10;99.90;;;;;;5033555;28;20422;-77
2021/01/31 12:12:26;;;;;;;5.40;4.60;;;3.20;99.90;;;;;;5033958;28;20655;-77
2021/01/31 12:14:52;;;;;;;6.50;4.17;;;3.20;99.90;;;;;;5031926;28;20441;-77
2021/01/31 12:17:17;;;;;;;4.67;3.60;;;3.20;99.90;;;;;;5035118;28;20172;-77
2021/01/31 12:19:43;;;;;;;4.80;3.87;;;3.30;99.90;;;;;;5067820;28;20263;-77
2021/01/31 12:22:08;;;;;;;6.03;4.50;;;3.30;99.90;;;;;;5032953;28;20561;-77
2021/01/31 12:24:34;;;;;;;7.60;5.40;;;3.50;99.90;;;;;;5031779;28;20228;-77
2021/01/31 12:27:00;;;;;;;6.27;4.63;;;3.40;99.90;;;;;;5033016;28;20532;-77
2021/01/31 12:29:25;;;;;;;6.43;5.13;;;3.50;99.90;;;;;;5032956;28;20207;-77
2021/01/31 12:31:51;;;;;;;5.50;3.70;;;3.50;99.90;;;;;;5032829;28;20226;-77
2021/01/31 12:34:16;;;;;;;6.30;4.80;;;3.40;99.90;;;;;;5032822;28;20225;-77
2021/01/31 12:36:43;;;;;;;8.60;5.77;;;3.60;99.90;;;;;;5032887;28;20232;-77
2021/01/31 12:39:10;;;;;;;5.23;4.30;;;3.50;99.90;;;;;;5032858;28;20168;-77
2021/01/31 12:41:35;;;;;;;5.23;4.67;;;3.60;99.90;;;;;;5025895;28;20450;-78
2021/01/31 12:44:01;;;;;;;6.73;4.83;;;3.80;99.90;;;;;;5022176;28;20460;-77
2021/01/31 12:46:27;;;;;;;6.70;4.70;;;3.90;99.90;;;;;;5027698;28;20684;-78
2021/01/31 12:48:53;;;;;;;7.20;4.90;;;3.90;99.90;;;;;;5032419;28;20418;-77
2021/01/31 12:51:19;;;;;;;6.50;4.70;;;3.70;99.90;;;;;;5032210;28;20453;-77
2021/01/31 12:53:44;;;;;;;6.60;4.90;;;3.70;99.90;;;;;;5032832;28;20175;-77
2021/01/31 12:56:10;;;;;;;5.07;4.33;;;3.70;99.90;;;;;;5031468;28;20414;-77
2021/01/31 12:58:35;;;;;;;5.57;4.77;;;3.60;99.90;;;;;;5031747;28;20168;-77
2021/01/31 13:01:01;;;;;;;7.30;4.90;;;3.50;99.90;;;;;;5032141;28;20191;-77
2021/01/31 13:03:27;;;;;;;8.77;4.93;;;3.40;99.90;;;;;;5032466;28;20852;-77
2021/01/31 13:05:53;;;;;;;7.63;4.80;;;3.30;99.90;;;;;;5032448;28;20467;-77
2021/01/31 13:08:18;;;;;;;11.30;6.10;;;3.20;99.90;;;;;;5032560;28;20164;-77
2021/01/31 13:10:44;;;;;;;8.40;5.00;;;3.20;99.90;;;;;;5028581;28;20171;-77
2021/01/31 13:13:10;;;;;;;7.17;5.30;;;3.10;99.90;;;;;;5018074;28;20207;-78
2021/01/31 13:15:35;;;;;;;6.60;5.27;;;3.20;99.90;;;;;;5023536;28;20187;-77
2021/01/31 13:18:01;;;;;;;8.33;4.73;;;3.60;99.90;;;;;;5023894;28;20237;-77
2021/01/31 13:20:28;;;;;;;5.63;5.03;;;3.60;99.90;;;;;;5030846;28;20182;-77